GCXOLPMA

Guest
Details From GCXO - Tenerife Norte - Los Rodeos
To LPMA - Madeira
Flight Number -
Tags generated
Created
Modified
Stats Distance 254 nm / 471 km
Max Altitude 24,500 ft / 7,468 m
Waypoints 4
Social Downloads 3
Likes 0
Share VATSIM

Download

Looking for another format? Having issues loading an existing format? Contact us
Advertisement - Login to hide

Notes

Basic altitude profile: - Ascent Rate: 2500ft/min - Ascent Speed: 250kts - Cruise Altitude: 30000ft - Cruise Speed: 420kts - Descent Rate: 1500ft/min - Descent Speed: 250kts Options: - Use NATs: yes - Use PACOTS: yes - Use low airways: no - Use high airways: yes

Route

GCXO BRICK UN728 ORTIS LPMA

ID Type Via Altitude Latitude Longitude Leg Dist Tot Dist Heading (true) Name
O GCXO APT - 0 ft / 0 m 28.48266˚ -16.34154˚ - 0 nm - Tenerife Norte - Los Rodeos
BRICK FIX - 22,700 ft / 6,919 m 29.59137˚ -16.37289˚ 66 nm 66 nm 359° / 359° -
ORTIS FIX UN728 (AWY-HI) 24,500 ft / 7,468 m 31.40696˚ -16.55691˚ 109 nm 176 nm 355° / 355° -
O LPMA APT - 0 ft / 0 m 32.69770˚ -16.77445˚ 78 nm 254 nm 352° / 352° Madeira

Altitude Profile

Advertisement - Login to hide

Weather


0- 5 10 15 20 25 30 35+ Temperature / ° C

Clouds and Precipitation
Forecast for 2018-05-22 18:00 UTC. Updated 4 hours ago

Ground ~20,000 ft ~40,000 ft Winds

GCXO

Details ICAO GCXO (TFN)
Name Tenerife Norte - Los Rodeos
Region Canary Islands
Timezone Atlantic/Canary (UTC+1.0)
Stats Elevation 2,076 ft / 633 m (AMSL)
Location 28.482656° -16.341541°
Runways 1
Magnetic Variation 4.952° W

METAR

GCXO 222143Z 31012KT 280V350 9999 2500NW R12/0400N PRFG FEW000 BKN002 BKN010 14/14 Q1019 NOSIG

Decode

TAF

TAF AMD GCXO 222132Z 2221/2321 32011KT 9999 BKN012 TX18/2314Z TN11/2305Z TEMPO 2221/2309 4000 DZRA BCFG BKN006 PROB30 TEMPO 2221/2309 1000 RA BCFG BKN005 PROB30 TEMPO 2221/2308 0500 DZRA BCFG BKN002

Decode

Departure Runways

ID Width Length Bearing (true) Bearing (mag) Surface Threshold Offset Overrun Length
12 148 ft / 45 m 11,165 ft / 3,403 m 110.67° 115.62° Asphalt 0 ft / 0 m 197 ft / 60 m
30 148 ft / 45 m 11,165 ft / 3,403 m 290.69° 295.64° Asphalt 0 ft / 0 m 197 ft / 60 m

LPMA

Details ICAO LPMA (FNC)
Name Madeira
Region Portugal
Timezone Atlantic/Madeira (UTC+1.0)
Stats Elevation 192 ft / 59 m (AMSL)
Location 32.697704° -16.774449°
Runways 1
Magnetic Variation 4.928° W

METAR

LPMA 222130Z 35013KT 9999 FEW016 SCT030 17/09 Q1017

Decode

TAF

TAF LPMA 221700Z 2218/2318 35012KT 9999 SCT015 SCT030 TEMPO 2218/2303 VRB05KT BECMG 2303/2306 VRB05KT

Decode

Destination Runways

ID Width Length Bearing (true) Bearing (mag) Surface Threshold Offset Overrun Length
05 141 ft / 43 m 8,683 ft / 2,647 m 42.98° 47.91° Asphalt 472 ft / 144 m 0 ft / 0 m
23 141 ft / 43 m 8,683 ft / 2,647 m 222.99° 227.92° Asphalt 466 ft / 142 m 0 ft / 0 m

Popular Alternatives